Terminal Aerodrome Forecast
Issued by NWS Cleveland, OH

Home | Current Version | Previous Version | Graphics & Text | Print | Product List | Glossary On
Versions: 1 2 3 4 5 6 7 8 9 10 11 12 13 14 15 16 17 18 19 20 21 22 23 24 25 26 27 28
000
FTUS41 KCLE 240500
TAFMFD
TAF
KMFD 240520Z 2406/2506 24004KT P6SM SCT015 OVC150
      TEMPO 2409/2413 5SM BR OVC015
     FM241400 24010KT P6SM SCT015 OVC025
     FM241900 25010KT 4SM -DZ BR OVC006 PROB30 2502/2506 4SM
      -FZDZSN=

USA.gov is the U.S. government's official web portal to all federal, state and local government web resources and services.